sensor_id;sensor_type;location;lat;lon;timestamp;P1;durP1;ratioP1;P2;durP2;ratioP2
59907;SDS011;61804;54.926;73.496;2022-09-13T00:01:16;12.35;;;6.13;;
59907;SDS011;61804;54.926;73.496;2022-09-13T00:03:44;13.73;;;5.10;;
59907;SDS011;61804;54.926;73.496;2022-09-13T00:06:14;9.65;;;5.13;;
59907;SDS011;61804;54.926;73.496;2022-09-13T00:08:41;10.02;;;4.97;;
59907;SDS011;61804;54.926;73.496;2022-09-13T00:11:45;9.77;;;5.10;;
59907;SDS011;61804;54.926;73.496;2022-09-13T00:14:15;11.45;;;5.82;;
59907;SDS011;61804;54.926;73.496;2022-09-13T00:16:53;23.38;;;8.90;;
59907;SDS011;61804;54.926;73.496;2022-09-13T00:19:21;29.45;;;6.82;;
59907;SDS011;61804;54.926;73.496;2022-09-13T00:21:49;15.00;;;7.05;;
59907;SDS011;61804;54.926;73.496;2022-09-13T00:24:18;18.33;;;15.95;;
59907;SDS011;61804;54.926;73.496;2022-09-13T00:26:46;12.05;;;10.88;;
59907;SDS011;61804;54.926;73.496;2022-09-13T00:29:14;32.63;;;22.63;;
59907;SDS011;61804;54.926;73.496;2022-09-13T00:31:41;16.33;;;13.40;;
59907;SDS011;61804;54.926;73.496;2022-09-13T00:34:09;12.02;;;10.30;;
59907;SDS011;61804;54.926;73.496;2022-09-13T00:36:36;11.60;;;6.05;;
59907;SDS011;61804;54.926;73.496;2022-09-13T00:39:04;9.68;;;6.15;;
59907;SDS011;61804;54.926;73.496;2022-09-13T00:41:32;3.83;;;3.42;;
59907;SDS011;61804;54.926;73.496;2022-09-13T00:44:00;12.23;;;4.72;;
59907;SDS011;61804;54.926;73.496;2022-09-13T00:46:32;14.75;;;5.20;;
59907;SDS011;61804;54.926;73.496;2022-09-13T00:49:16;13.77;;;4.43;;
59907;SDS011;61804;54.926;73.496;2022-09-13T00:51:53;7.05;;;3.40;;
59907;SDS011;61804;54.926;73.496;2022-09-13T00:54:23;13.38;;;5.00;;
59907;SDS011;61804;54.926;73.496;2022-09-13T00:56:54;32.38;;;9.70;;
59907;SDS011;61804;54.926;73.496;2022-09-13T00:59:29;57.03;;;14.90;;
59907;SDS011;61804;54.926;73.496;2022-09-13T01:01:58;29.98;;;9.45;;
59907;SDS011;61804;54.926;73.496;2022-09-13T01:04:28;20.63;;;7.57;;
59907;SDS011;61804;54.926;73.496;2022-09-13T01:06:58;8.85;;;5.13;;
59907;SDS011;61804;54.926;73.496;2022-09-13T01:09:27;15.45;;;5.43;;
59907;SDS011;61804;54.926;73.496;2022-09-13T01:12:07;21.05;;;8.05;;
59907;SDS011;61804;54.926;73.496;2022-09-13T01:14:38;27.20;;;8.10;;
59907;SDS011;61804;54.926;73.496;2022-09-13T01:17:06;28.40;;;12.45;;
59907;SDS011;61804;54.926;73.496;2022-09-13T01:19:35;31.85;;;11.70;;
59907;SDS011;61804;54.926;73.496;2022-09-13T01:22:24;17.10;;;10.90;;
59907;SDS011;61804;54.926;73.496;2022-09-13T01:30:20;50.72;;;38.13;;
59907;SDS011;61804;54.926;73.496;2022-09-13T01:33:14;56.00;;;30.77;;
59907;SDS011;61804;54.926;73.496;2022-09-13T01:40:52;54.13;;;41.22;;
59907;SDS011;61804;54.926;73.496;2022-09-13T01:46:05;371.65;;;202.00;;
59907;SDS011;61804;54.926;73.496;2022-09-13T02:01:48;330.05;;;223.35;;
59907;SDS011;61804;54.926;73.496;2022-09-13T02:04:18;329.73;;;216.90;;
59907;SDS011;61804;54.926;73.496;2022-09-13T02:09:23;312.40;;;154.45;;
59907;SDS011;61804;54.926;73.496;2022-09-13T02:11:56;235.02;;;145.13;;
59907;SDS011;61804;54.926;73.496;2022-09-13T02:14:41;148.38;;;86.97;;
59907;SDS011;61804;54.926;73.496;2022-09-13T02:19:40;143.52;;;88.47;;
59907;SDS011;61804;54.926;73.496;2022-09-13T02:22:11;86.15;;;54.45;;
59907;SDS011;61804;54.926;73.496;2022-09-13T02:24:40;70.35;;;48.72;;
59907;SDS011;61804;54.926;73.496;2022-09-13T02:27:09;35.25;;;23.75;;
59907;SDS011;61804;54.926;73.496;2022-09-13T02:29:39;21.73;;;18.10;;
59907;SDS011;61804;54.926;73.496;2022-09-13T02:34:39;15.57;;;7.80;;
59907;SDS011;61804;54.926;73.496;2022-09-13T02:37:08;13.10;;;6.30;;
59907;SDS011;61804;54.926;73.496;2022-09-13T02:39:40;8.82;;;6.38;;
59907;SDS011;61804;54.926;73.496;2022-09-13T02:42:16;13.32;;;5.72;;
59907;SDS011;61804;54.926;73.496;2022-09-13T02:44:45;17.75;;;9.98;;
59907;SDS011;61804;54.926;73.496;2022-09-13T02:47:23;12.80;;;6.10;;
59907;SDS011;61804;54.926;73.496;2022-09-13T02:49:54;8.52;;;4.88;;
59907;SDS011;61804;54.926;73.496;2022-09-13T02:52:40;10.30;;;8.25;;
59907;SDS011;61804;54.926;73.496;2022-09-13T02:55:19;4.38;;;3.97;;
59907;SDS011;61804;54.926;73.496;2022-09-13T03:00:27;8.25;;;4.10;;
59907;SDS011;61804;54.926;73.496;2022-09-13T03:02:55;6.40;;;4.72;;
59907;SDS011;61804;54.926;73.496;2022-09-13T03:05:24;24.98;;;8.73;;
59907;SDS011;61804;54.926;73.496;2022-09-13T03:07:51;10.45;;;5.93;;
59907;SDS011;61804;54.926;73.496;2022-09-13T03:10:19;8.43;;;4.18;;
59907;SDS011;61804;54.926;73.496;2022-09-13T03:31:09;54.17;;;29.45;;
59907;SDS011;61804;54.926;73.496;2022-09-13T03:33:47;25.02;;;14.60;;
59907;SDS011;61804;54.926;73.496;2022-09-13T03:36:24;13.65;;;10.32;;
59907;SDS011;61804;54.926;73.496;2022-09-13T03:41:42;24.83;;;9.68;;
59907;SDS011;61804;54.926;73.496;2022-09-13T03:44:11;2.20;;;2.00;;
59907;SDS011;61804;54.926;73.496;2022-09-13T03:46:40;4.15;;;2.70;;
59907;SDS011;61804;54.926;73.496;2022-09-13T03:49:14;4.63;;;2.85;;
59907;SDS011;61804;54.926;73.496;2022-09-13T03:51:43;2.95;;;2.15;;
59907;SDS011;61804;54.926;73.496;2022-09-13T03:54:19;14.82;;;5.80;;
59907;SDS011;61804;54.926;73.496;2022-09-13T03:59:35;15.90;;;11.45;;
59907;SDS011;61804;54.926;73.496;2022-09-13T04:02:05;24.20;;;2.67;;
59907;SDS011;61804;54.926;73.496;2022-09-13T04:04:39;5.55;;;1.92;;
59907;SDS011;61804;54.926;73.496;2022-09-13T04:07:08;0.95;;;0.95;;
59907;SDS011;61804;54.926;73.496;2022-09-13T04:09:39;3.20;;;2.47;;
59907;SDS011;61804;54.926;73.496;2022-09-13T04:12:07;13.20;;;2.92;;
59907;SDS011;61804;54.926;73.496;2022-09-13T04:14:43;8.45;;;4.63;;
59907;SDS011;61804;54.926;73.496;2022-09-13T04:17:10;14.82;;;3.20;;
59907;SDS011;61804;54.926;73.496;2022-09-13T04:19:38;20.40;;;4.47;;
59907;SDS011;61804;54.926;73.496;2022-09-13T04:22:10;5.38;;;3.55;;
59907;SDS011;61804;54.926;73.496;2022-09-13T04:24:39;9.60;;;3.40;;
59907;SDS011;61804;54.926;73.496;2022-09-13T04:27:08;2.67;;;1.98;;
59907;SDS011;61804;54.926;73.496;2022-09-13T04:29:36;2.63;;;1.83;;
59907;SDS011;61804;54.926;73.496;2022-09-13T04:32:05;8.23;;;2.17;;
59907;SDS011;61804;54.926;73.496;2022-09-13T04:34:32;5.82;;;2.25;;
59907;SDS011;61804;54.926;73.496;2022-09-13T04:37:00;4.85;;;2.22;;
59907;SDS011;61804;54.926;73.496;2022-09-13T04:39:28;10.50;;;1.95;;
59907;SDS011;61804;54.926;73.496;2022-09-13T04:42:05;8.65;;;3.97;;
59907;SDS011;61804;54.926;73.496;2022-09-13T04:44:33;1.23;;;1.08;;
59907;SDS011;61804;54.926;73.496;2022-09-13T04:47:01;1.75;;;1.20;;
59907;SDS011;61804;54.926;73.496;2022-09-13T04:49:31;8.18;;;2.92;;
59907;SDS011;61804;54.926;73.496;2022-09-13T04:52:00;8.27;;;2.88;;
59907;SDS011;61804;54.926;73.496;2022-09-13T04:54:28;6.00;;;2.05;;
59907;SDS011;61804;54.926;73.496;2022-09-13T04:56:55;1.75;;;1.20;;
59907;SDS011;61804;54.926;73.496;2022-09-13T04:59:22;10.50;;;8.25;;
59907;SDS011;61804;54.926;73.496;2022-09-13T05:01:49;9.85;;;2.00;;
59907;SDS011;61804;54.926;73.496;2022-09-13T05:04:17;1.95;;;1.55;;
59907;SDS011;61804;54.926;73.496;2022-09-13T05:06:45;7.72;;;1.77;;
59907;SDS011;61804;54.926;73.496;2022-09-13T05:09:16;12.25;;;3.83;;
59907;SDS011;61804;54.926;73.496;2022-09-13T05:11:44;4.80;;;2.58;;
59907;SDS011;61804;54.926;73.496;2022-09-13T05:14:22;4.57;;;2.08;;
59907;SDS011;61804;54.926;73.496;2022-09-13T05:16:52;2.85;;;1.25;;
59907;SDS011;61804;54.926;73.496;2022-09-13T05:19:29;10.48;;;2.80;;
59907;SDS011;61804;54.926;73.496;2022-09-13T05:21:58;2.72;;;1.45;;
59907;SDS011;61804;54.926;73.496;2022-09-13T05:24:25;9.05;;;3.03;;
59907;SDS011;61804;54.926;73.496;2022-09-13T05:26:53;1.50;;;1.33;;
59907;SDS011;61804;54.926;73.496;2022-09-13T05:29:20;9.18;;;2.15;;
59907;SDS011;61804;54.926;73.496;2022-09-13T05:31:47;2.10;;;1.30;;
59907;SDS011;61804;54.926;73.496;2022-09-13T05:34:19;1.92;;;1.33;;
59907;SDS011;61804;54.926;73.496;2022-09-13T05:36:47;2.83;;;1.00;;
59907;SDS011;61804;54.926;73.496;2022-09-13T05:39:16;3.17;;;1.17;;
59907;SDS011;61804;54.926;73.496;2022-09-13T05:41:44;3.60;;;1.30;;
59907;SDS011;61804;54.926;73.496;2022-09-13T05:44:13;3.42;;;1.08;;
59907;SDS011;61804;54.926;73.496;2022-09-13T05:46:41;5.50;;;1.15;;
59907;SDS011;61804;54.926;73.496;2022-09-13T05:49:10;43.60;;;8.52;;
59907;SDS011;61804;54.926;73.496;2022-09-13T05:51:39;15.57;;;2.75;;
59907;SDS011;61804;54.926;73.496;2022-09-13T05:54:10;9.02;;;2.45;;
59907;SDS011;61804;54.926;73.496;2022-09-13T05:56:38;16.00;;;2.90;;
59907;SDS011;61804;54.926;73.496;2022-09-13T05:59:06;5.50;;;2.00;;
59907;SDS011;61804;54.926;73.496;2022-09-13T06:01:34;12.25;;;3.40;;
59907;SDS011;61804;54.926;73.496;2022-09-13T06:04:03;5.80;;;1.35;;
59907;SDS011;61804;54.926;73.496;2022-09-13T06:06:31;4.38;;;1.17;;
59907;SDS011;61804;54.926;73.496;2022-09-13T06:08:58;7.57;;;2.72;;
59907;SDS011;61804;54.926;73.496;2022-09-13T06:11:26;22.23;;;7.93;;
59907;SDS011;61804;54.926;73.496;2022-09-13T06:13:53;17.80;;;5.82;;
59907;SDS011;61804;54.926;73.496;2022-09-13T06:16:21;6.25;;;1.35;;
59907;SDS011;61804;54.926;73.496;2022-09-13T06:18:49;4.88;;;1.73;;
59907;SDS011;61804;54.926;73.496;2022-09-13T06:21:18;3.67;;;1.60;;
59907;SDS011;61804;54.926;73.496;2022-09-13T06:23:47;35.42;;;7.80;;
59907;SDS011;61804;54.926;73.496;2022-09-13T06:26:16;9.45;;;1.65;;
59907;SDS011;61804;54.926;73.496;2022-09-13T06:28:48;1.05;;;0.73;;
59907;SDS011;61804;54.926;73.496;2022-09-13T06:31:17;4.68;;;1.58;;
59907;SDS011;61804;54.926;73.496;2022-09-13T06:33:45;4.90;;;1.33;;
59907;SDS011;61804;54.926;73.496;2022-09-13T06:36:14;8.00;;;1.73;;
59907;SDS011;61804;54.926;73.496;2022-09-13T06:38:54;20.67;;;13.02;;
59907;SDS011;61804;54.926;73.496;2022-09-13T06:41:22;8.38;;;1.52;;
59907;SDS011;61804;54.926;73.496;2022-09-13T06:43:55;3.70;;;2.55;;
59907;SDS011;61804;54.926;73.496;2022-09-13T06:46:24;4.50;;;1.52;;
59907;SDS011;61804;54.926;73.496;2022-09-13T06:49:03;3.53;;;1.38;;
59907;SDS011;61804;54.926;73.496;2022-09-13T06:51:32;0.70;;;0.70;;
59907;SDS011;61804;54.926;73.496;2022-09-13T06:54:11;7.03;;;1.38;;
59907;SDS011;61804;54.926;73.496;2022-09-13T06:56:38;2.88;;;1.60;;
59907;SDS011;61804;54.926;73.496;2022-09-13T06:59:07;7.43;;;1.70;;
59907;SDS011;61804;54.926;73.496;2022-09-13T07:01:41;8.93;;;4.38;;
59907;SDS011;61804;54.926;73.496;2022-09-13T07:04:12;3.13;;;1.65;;
59907;SDS011;61804;54.926;73.496;2022-09-13T07:06:44;25.38;;;17.55;;
59907;SDS011;61804;54.926;73.496;2022-09-13T07:09:21;7.80;;;2.92;;
59907;SDS011;61804;54.926;73.496;2022-09-13T07:11:50;2.58;;;1.10;;
59907;SDS011;61804;54.926;73.496;2022-09-13T07:14:22;6.85;;;2.47;;
59907;SDS011;61804;54.926;73.496;2022-09-13T07:16:51;8.15;;;1.60;;
59907;SDS011;61804;54.926;73.496;2022-09-13T07:19:20;2.45;;;1.67;;
59907;SDS011;61804;54.926;73.496;2022-09-13T07:21:53;8.63;;;2.08;;
59907;SDS011;61804;54.926;73.496;2022-09-13T07:24:20;2.92;;;1.58;;
59907;SDS011;61804;54.926;73.496;2022-09-13T07:26:48;3.60;;;2.38;;
59907;SDS011;61804;54.926;73.496;2022-09-13T07:29:17;88.28;;;48.65;;
59907;SDS011;61804;54.926;73.496;2022-09-13T07:31:46;24.55;;;16.08;;
59907;SDS011;61804;54.926;73.496;2022-09-13T07:34:18;10.88;;;4.40;;
59907;SDS011;61804;54.926;73.496;2022-09-13T07:36:46;3.83;;;2.80;;
59907;SDS011;61804;54.926;73.496;2022-09-13T07:39:24;21.05;;;5.80;;
59907;SDS011;61804;54.926;73.496;2022-09-13T07:41:51;28.25;;;10.63;;
59907;SDS011;61804;54.926;73.496;2022-09-13T07:44:19;13.02;;;7.43;;
59907;SDS011;61804;54.926;73.496;2022-09-13T07:46:52;8.63;;;3.90;;
59907;SDS011;61804;54.926;73.496;2022-09-13T07:49:19;16.48;;;5.53;;
59907;SDS011;61804;54.926;73.496;2022-09-13T07:51:56;20.08;;;7.88;;
59907;SDS011;61804;54.926;73.496;2022-09-13T07:54:24;41.45;;;19.90;;
59907;SDS011;61804;54.926;73.496;2022-09-13T07:56:51;16.92;;;4.72;;
59907;SDS011;61804;54.926;73.496;2022-09-13T07:59:24;11.73;;;5.72;;
59907;SDS011;61804;54.926;73.496;2022-09-13T08:01:51;18.25;;;10.70;;
59907;SDS011;61804;54.926;73.496;2022-09-13T08:04:19;10.38;;;4.80;;
59907;SDS011;61804;54.926;73.496;2022-09-13T08:06:48;13.73;;;7.93;;
59907;SDS011;61804;54.926;73.496;2022-09-13T08:09:16;7.30;;;4.32;;
59907;SDS011;61804;54.926;73.496;2022-09-13T08:11:48;13.20;;;5.03;;
59907;SDS011;61804;54.926;73.496;2022-09-13T08:14:16;16.38;;;4.45;;
59907;SDS011;61804;54.926;73.496;2022-09-13T08:16:44;2.47;;;1.85;;
59907;SDS011;61804;54.926;73.496;2022-09-13T08:19:15;2.25;;;1.42;;
59907;SDS011;61804;54.926;73.496;2022-09-13T08:21:44;3.63;;;3.25;;
59907;SDS011;61804;54.926;73.496;2022-09-13T08:24:21;40.88;;;10.13;;
59907;SDS011;61804;54.926;73.496;2022-09-13T08:26:48;9.85;;;4.90;;
59907;SDS011;61804;54.926;73.496;2022-09-13T08:29:17;24.95;;;4.32;;
59907;SDS011;61804;54.926;73.496;2022-09-13T08:31:45;5.57;;;1.58;;
59907;SDS011;61804;54.926;73.496;2022-09-13T08:34:14;8.27;;;2.45;;
59907;SDS011;61804;54.926;73.496;2022-09-13T08:36:43;4.20;;;1.95;;
59907;SDS011;61804;54.926;73.496;2022-09-13T08:39:11;3.45;;;1.67;;
59907;SDS011;61804;54.926;73.496;2022-09-13T08:46:44;4.50;;;2.03;;
59907;SDS011;61804;54.926;73.496;2022-09-13T08:49:19;6.88;;;3.85;;
59907;SDS011;61804;54.926;73.496;2022-09-13T08:51:49;7.50;;;2.40;;
59907;SDS011;61804;54.926;73.496;2022-09-13T08:54:28;6.95;;;1.80;;
59907;SDS011;61804;54.926;73.496;2022-09-13T08:59:53;1.13;;;1.05;;
59907;SDS011;61804;54.926;73.496;2022-09-13T09:07:23;5.57;;;1.75;;
59907;SDS011;61804;54.926;73.496;2022-09-13T09:09:54;3.45;;;1.55;;
59907;SDS011;61804;54.926;73.496;2022-09-13T09:15:17;3.25;;;2.50;;
59907;SDS011;61804;54.926;73.496;2022-09-13T09:23:35;8.43;;;2.50;;
59907;SDS011;61804;54.926;73.496;2022-09-13T09:26:15;20.95;;;6.88;;
59907;SDS011;61804;54.926;73.496;2022-09-13T09:31:19;38.72;;;7.38;;
59907;SDS011;61804;54.926;73.496;2022-09-13T09:36:57;9.38;;;3.25;;
59907;SDS011;61804;54.926;73.496;2022-09-13T09:39:14;2.17;;;1.33;;
59907;SDS011;61804;54.926;73.496;2022-09-13T09:41:42;3.67;;;2.28;;
59907;SDS011;61804;54.926;73.496;2022-09-13T09:44:17;9.32;;;5.05;;
59907;SDS011;61804;54.926;73.496;2022-09-13T09:49:35;4.30;;;2.65;;
59907;SDS011;61804;54.926;73.496;2022-09-13T09:52:54;11.80;;;3.53;;
59907;SDS011;61804;54.926;73.496;2022-09-13T09:57:58;5.13;;;4.25;;
59907;SDS011;61804;54.926;73.496;2022-09-13T10:00:33;2.45;;;1.85;;
59907;SDS011;61804;54.926;73.496;2022-09-13T10:03:15;5.47;;;3.53;;
59907;SDS011;61804;54.926;73.496;2022-09-13T10:05:47;7.95;;;3.42;;
59907;SDS011;61804;54.926;73.496;2022-09-13T10:08:25;6.93;;;4.15;;
59907;SDS011;61804;54.926;73.496;2022-09-13T10:10:55;8.82;;;3.90;;
59907;SDS011;61804;54.926;73.496;2022-09-13T10:13:28;4.97;;;3.15;;
59907;SDS011;61804;54.926;73.496;2022-09-13T10:15:57;11.45;;;2.78;;
59907;SDS011;61804;54.926;73.496;2022-09-13T10:18:37;7.03;;;2.60;;
59907;SDS011;61804;54.926;73.496;2022-09-13T10:21:06;1.88;;;1.52;;
59907;SDS011;61804;54.926;73.496;2022-09-13T10:23:47;2.40;;;1.33;;
59907;SDS011;61804;54.926;73.496;2022-09-13T10:26:22;5.10;;;2.35;;
59907;SDS011;61804;54.926;73.496;2022-09-13T10:29:05;3.42;;;1.25;;
59907;SDS011;61804;54.926;73.496;2022-09-13T10:31:37;4.07;;;1.13;;
59907;SDS011;61804;54.926;73.496;2022-09-13T10:34:12;27.90;;;6.32;;
59907;SDS011;61804;54.926;73.496;2022-09-13T10:36:47;15.88;;;10.65;;
59907;SDS011;61804;54.926;73.496;2022-09-13T10:39:27;32.50;;;5.75;;
59907;SDS011;61804;54.926;73.496;2022-09-13T10:41:59;8.57;;;6.38;;
59907;SDS011;61804;54.926;73.496;2022-09-13T10:44:44;19.98;;;11.30;;
59907;SDS011;61804;54.926;73.496;2022-09-13T10:47:17;25.80;;;9.23;;
59907;SDS011;61804;54.926;73.496;2022-09-13T10:49:47;10.20;;;7.03;;
59907;SDS011;61804;54.926;73.496;2022-09-13T10:55:22;4.38;;;2.15;;
59907;SDS011;61804;54.926;73.496;2022-09-13T10:57:51;4.32;;;3.30;;
59907;SDS011;61804;54.926;73.496;2022-09-13T11:00:21;14.55;;;4.05;;
59907;SDS011;61804;54.926;73.496;2022-09-13T11:08:39;22.17;;;14.40;;
59907;SDS011;61804;54.926;73.496;2022-09-13T11:10:45;20.88;;;11.07;;
59907;SDS011;61804;54.926;73.496;2022-09-13T11:35:04;21.67;;;11.20;;
59907;SDS011;61804;54.926;73.496;2022-09-13T11:45:24;53.00;;;29.85;;
59907;SDS011;61804;54.926;73.496;2022-09-13T11:48:06;56.63;;;32.00;;
59907;SDS011;61804;54.926;73.496;2022-09-13T11:55:48;66.15;;;40.17;;
59907;SDS011;61804;54.926;73.496;2022-09-13T11:58:37;69.65;;;42.85;;
59907;SDS011;61804;54.926;73.496;2022-09-13T12:01:09;56.35;;;33.45;;
59907;SDS011;61804;54.926;73.496;2022-09-13T12:04:01;29.13;;;18.17;;
59907;SDS011;61804;54.926;73.496;2022-09-13T12:09:21;20.45;;;8.75;;
59907;SDS011;61804;54.926;73.496;2022-09-13T12:12:03;25.40;;;7.07;;
59907;SDS011;61804;54.926;73.496;2022-09-13T12:17:57;5.53;;;2.72;;
59907;SDS011;61804;54.926;73.496;2022-09-13T12:20:12;6.80;;;4.32;;
59907;SDS011;61804;54.926;73.496;2022-09-13T12:22:41;11.10;;;3.95;;
59907;SDS011;61804;54.926;73.496;2022-09-13T12:25:22;16.42;;;9.73;;
59907;SDS011;61804;54.926;73.496;2022-09-13T12:27:58;54.42;;;39.35;;
59907;SDS011;61804;54.926;73.496;2022-09-13T12:30:32;78.93;;;58.28;;
59907;SDS011;61804;54.926;73.496;2022-09-13T12:33:08;173.00;;;125.05;;
59907;SDS011;61804;54.926;73.496;2022-09-13T12:44:26;58.92;;;42.95;;
59907;SDS011;61804;54.926;73.496;2022-09-13T12:47:10;223.30;;;130.55;;
59907;SDS011;61804;54.926;73.496;2022-09-13T13:04:57;511.65;;;398.17;;
59907;SDS011;61804;54.926;73.496;2022-09-13T13:07:26;64.25;;;49.20;;
59907;SDS011;61804;54.926;73.496;2022-09-13T13:10:06;49.75;;;34.67;;
59907;SDS011;61804;54.926;73.496;2022-09-13T13:12:37;46.88;;;28.63;;
59907;SDS011;61804;54.926;73.496;2022-09-13T13:17:45;82.65;;;41.65;;
59907;SDS011;61804;54.926;73.496;2022-09-13T13:41:57;28.88;;;21.00;;
59907;SDS011;61804;54.926;73.496;2022-09-13T13:54:58;48.63;;;31.27;;
59907;SDS011;61804;54.926;73.496;2022-09-13T14:05:06;48.67;;;26.75;;
59907;SDS011;61804;54.926;73.496;2022-09-13T14:07:54;28.17;;;19.38;;
59907;SDS011;61804;54.926;73.496;2022-09-13T14:10:35;34.15;;;20.08;;
59907;SDS011;61804;54.926;73.496;2022-09-13T14:13:14;27.33;;;16.65;;
59907;SDS011;61804;54.926;73.496;2022-09-13T14:18:25;35.90;;;24.40;;
59907;SDS011;61804;54.926;73.496;2022-09-13T14:21:00;47.38;;;32.53;;
59907;SDS011;61804;54.926;73.496;2022-09-13T14:23:28;65.38;;;31.67;;
59907;SDS011;61804;54.926;73.496;2022-09-13T14:25:57;45.20;;;26.88;;
59907;SDS011;61804;54.926;73.496;2022-09-13T14:28:25;44.03;;;22.63;;
59907;SDS011;61804;54.926;73.496;2022-09-13T14:30:54;33.28;;;18.52;;
59907;SDS011;61804;54.926;73.496;2022-09-13T14:33:31;28.38;;;13.27;;
59907;SDS011;61804;54.926;73.496;2022-09-13T14:36:04;29.30;;;14.70;;
59907;SDS011;61804;54.926;73.496;2022-09-13T14:38:33;25.80;;;17.73;;
59907;SDS011;61804;54.926;73.496;2022-09-13T14:41:29;36.33;;;22.50;;
59907;SDS011;61804;54.926;73.496;2022-09-13T14:43:50;25.92;;;23.15;;
59907;SDS011;61804;54.926;73.496;2022-09-13T14:51:22;60.35;;;36.25;;
59907;SDS011;61804;54.926;73.496;2022-09-13T14:53:56;33.20;;;21.05;;
59907;SDS011;61804;54.926;73.496;2022-09-13T14:56:34;54.10;;;28.45;;
59907;SDS011;61804;54.926;73.496;2022-09-13T14:59:05;32.10;;;21.63;;
59907;SDS011;61804;54.926;73.496;2022-09-13T15:01:41;54.88;;;33.42;;
59907;SDS011;61804;54.926;73.496;2022-09-13T15:04:09;42.45;;;30.92;;
59907;SDS011;61804;54.926;73.496;2022-09-13T15:06:38;57.20;;;40.83;;
59907;SDS011;61804;54.926;73.496;2022-09-13T15:14:29;60.72;;;41.58;;
59907;SDS011;61804;54.926;73.496;2022-09-13T15:22:23;53.78;;;27.17;;
59907;SDS011;61804;54.926;73.496;2022-09-13T15:24:55;42.92;;;28.50;;
59907;SDS011;61804;54.926;73.496;2022-09-13T15:27:25;52.08;;;35.28;;
59907;SDS011;61804;54.926;73.496;2022-09-13T15:29:56;51.10;;;38.83;;
59907;SDS011;61804;54.926;73.496;2022-09-13T15:34:58;36.30;;;25.92;;
59907;SDS011;61804;54.926;73.496;2022-09-13T15:37:37;45.22;;;22.35;;
59907;SDS011;61804;54.926;73.496;2022-09-13T15:40:11;30.67;;;22.95;;
59907;SDS011;61804;54.926;73.496;2022-09-13T15:42:43;36.25;;;24.90;;
59907;SDS011;61804;54.926;73.496;2022-09-13T15:45:19;40.40;;;22.33;;
59907;SDS011;61804;54.926;73.496;2022-09-13T15:47:58;47.20;;;26.23;;
59907;SDS011;61804;54.926;73.496;2022-09-13T15:50:40;50.78;;;29.40;;
59907;SDS011;61804;54.926;73.496;2022-09-13T15:53:10;66.15;;;35.63;;
59907;SDS011;61804;54.926;73.496;2022-09-13T15:55:43;65.78;;;38.60;;
59907;SDS011;61804;54.926;73.496;2022-09-13T15:58:22;49.38;;;26.95;;
59907;SDS011;61804;54.926;73.496;2022-09-13T16:00:56;31.95;;;21.55;;
59907;SDS011;61804;54.926;73.496;2022-09-13T16:03:27;30.10;;;17.52;;
59907;SDS011;61804;54.926;73.496;2022-09-13T16:05:59;21.25;;;13.70;;
59907;SDS011;61804;54.926;73.496;2022-09-13T16:08:26;14.02;;;11.55;;
59907;SDS011;61804;54.926;73.496;2022-09-13T16:10:54;19.33;;;15.50;;
59907;SDS011;61804;54.926;73.496;2022-09-13T16:13:22;21.25;;;13.98;;
59907;SDS011;61804;54.926;73.496;2022-09-13T16:15:56;13.48;;;10.85;;
59907;SDS011;61804;54.926;73.496;2022-09-13T16:18:26;13.02;;;7.97;;
59907;SDS011;61804;54.926;73.496;2022-09-13T16:20:54;14.43;;;10.23;;
59907;SDS011;61804;54.926;73.496;2022-09-13T16:23:26;15.93;;;8.77;;
59907;SDS011;61804;54.926;73.496;2022-09-13T16:25:59;14.93;;;9.65;;
59907;SDS011;61804;54.926;73.496;2022-09-13T16:28:27;18.92;;;10.88;;
59907;SDS011;61804;54.926;73.496;2022-09-13T16:31:01;23.85;;;15.02;;
59907;SDS011;61804;54.926;73.496;2022-09-13T16:33:29;15.38;;;12.90;;
59907;SDS011;61804;54.926;73.496;2022-09-13T16:36:03;12.90;;;10.82;;
59907;SDS011;61804;54.926;73.496;2022-09-13T16:38:42;18.05;;;11.80;;
59907;SDS011;61804;54.926;73.496;2022-09-13T16:41:20;21.67;;;9.80;;
59907;SDS011;61804;54.926;73.496;2022-09-13T16:43:49;10.18;;;6.63;;
59907;SDS011;61804;54.926;73.496;2022-09-13T16:46:18;12.18;;;7.40;;
59907;SDS011;61804;54.926;73.496;2022-09-13T16:48:52;8.77;;;5.72;;
59907;SDS011;61804;54.926;73.496;2022-09-13T16:51:30;12.02;;;6.65;;
59907;SDS011;61804;54.926;73.496;2022-09-13T16:53:59;18.88;;;9.13;;
59907;SDS011;61804;54.926;73.496;2022-09-13T16:56:33;30.88;;;17.63;;
59907;SDS011;61804;54.926;73.496;2022-09-13T16:59:05;25.00;;;17.13;;
59907;SDS011;61804;54.926;73.496;2022-09-13T17:01:35;81.63;;;50.42;;
59907;SDS011;61804;54.926;73.496;2022-09-13T17:04:12;60.38;;;39.72;;
59907;SDS011;61804;54.926;73.496;2022-09-13T17:06:54;51.47;;;27.23;;
59907;SDS011;61804;54.926;73.496;2022-09-13T17:09:23;48.55;;;28.90;;
59907;SDS011;61804;54.926;73.496;2022-09-13T17:11:53;26.30;;;15.05;;
59907;SDS011;61804;54.926;73.496;2022-09-13T17:14:21;24.83;;;16.02;;
59907;SDS011;61804;54.926;73.496;2022-09-13T17:16:49;21.40;;;12.65;;
59907;SDS011;61804;54.926;73.496;2022-09-13T17:19:22;16.65;;;9.50;;
59907;SDS011;61804;54.926;73.496;2022-09-13T17:21:50;16.63;;;8.60;;
59907;SDS011;61804;54.926;73.496;2022-09-13T17:24:18;12.13;;;5.55;;
59907;SDS011;61804;54.926;73.496;2022-09-13T17:26:46;6.65;;;3.83;;
59907;SDS011;61804;54.926;73.496;2022-09-13T17:29:14;5.35;;;2.50;;
59907;SDS011;61804;54.926;73.496;2022-09-13T17:31:42;10.60;;;2.83;;
59907;SDS011;61804;54.926;73.496;2022-09-13T17:34:11;3.50;;;3.08;;
59907;SDS011;61804;54.926;73.496;2022-09-13T17:36:49;10.00;;;2.55;;
59907;SDS011;61804;54.926;73.496;2022-09-13T17:39:17;2.70;;;2.45;;
59907;SDS011;61804;54.926;73.496;2022-09-13T17:41:45;6.97;;;3.10;;
59907;SDS011;61804;54.926;73.496;2022-09-13T17:44:14;3.55;;;2.42;;
59907;SDS011;61804;54.926;73.496;2022-09-13T17:46:42;3.72;;;1.98;;
59907;SDS011;61804;54.926;73.496;2022-09-13T17:49:12;2.22;;;2.05;;
59907;SDS011;61804;54.926;73.496;2022-09-13T17:51:40;3.55;;;2.15;;
59907;SDS011;61804;54.926;73.496;2022-09-13T17:54:09;1.73;;;1.50;;
59907;SDS011;61804;54.926;73.496;2022-09-13T17:56:38;3.97;;;1.33;;
59907;SDS011;61804;54.926;73.496;2022-09-13T17:59:13;2.35;;;1.60;;
59907;SDS011;61804;54.926;73.496;2022-09-13T18:01:43;3.60;;;1.77;;
59907;SDS011;61804;54.926;73.496;2022-09-13T18:04:12;3.42;;;1.88;;
59907;SDS011;61804;54.926;73.496;2022-09-13T18:06:40;7.13;;;2.17;;
59907;SDS011;61804;54.926;73.496;2022-09-13T18:09:17;3.97;;;2.30;;
59907;SDS011;61804;54.926;73.496;2022-09-13T18:11:56;4.85;;;2.33;;
59907;SDS011;61804;54.926;73.496;2022-09-13T18:14:24;2.28;;;1.42;;
59907;SDS011;61804;54.926;73.496;2022-09-13T18:16:59;4.28;;;1.40;;
59907;SDS011;61804;54.926;73.496;2022-09-13T18:19:27;2.65;;;1.40;;
59907;SDS011;61804;54.926;73.496;2022-09-13T18:22:09;1.70;;;1.60;;
59907;SDS011;61804;54.926;73.496;2022-09-13T18:24:36;3.38;;;2.50;;
59907;SDS011;61804;54.926;73.496;2022-09-13T18:27:05;7.00;;;2.00;;
59907;SDS011;61804;54.926;73.496;2022-09-13T18:29:34;7.95;;;6.07;;
59907;SDS011;61804;54.926;73.496;2022-09-13T18:32:03;3.10;;;2.28;;
59907;SDS011;61804;54.926;73.496;2022-09-13T18:34:36;6.55;;;4.18;;
59907;SDS011;61804;54.926;73.496;2022-09-13T18:37:04;3.83;;;2.22;;
59907;SDS011;61804;54.926;73.496;2022-09-13T18:39:31;5.00;;;2.72;;